• Join FlightAware (Why Join?)
  • Login
  • US Flag 
09:04AM EDT


 

Airport Tracker/Info


-or-


 

Live Flight TrackerFlight Track Log ✈ BJS339 ✈ 24-Dec-2013 ✈ CYYJ - KSJC

Flight Track Log - Related Links

Times and Time Zones

All times are in EST time to prevent confusion due to time zone crossing. See the BJS339 flight status page for this flight to view local times or setup timezone preferences in your user account.

Time Position Orientation Groundspeed Altitude Reporting Facility
EST Latitude Longitude Course Direction KTS MPH feet Rate Location/Type
12:39PM 48.6500 -123.5500 202° Southwest 200 230 3,200  Level Vancouver Center
12:40PM 48.6000 -123.6000 213° Southwest 220 253 6,300 3,120 Climbing Vancouver Center
12:41PM 48.5333 -123.6000 180° South 270 311 9,500 3,420 Climbing Vancouver Center
12:42PM 48.4333 -123.6000 180° South 310 357 13,200 3,300 Climbing Vancouver Center
12:43PM 47.9601 -123.3169 180° South  Level Estimated
12:43PM 48.3500 -123.6000 180° South 340 391 16,200  Level Vancouver Center
12:44PM 47.8534 -123.3813 202° Southwest  Level FlightAware Approximate
12:44PM 48.2333 -123.5667 169° South 370 426 18,400  Level Vancouver Center
12:45PM 48.1333 -123.5667 180° South 390 449 21,100 2,280 Climbing Vancouver Center
12:46PM 48.0167 -123.5833 185° South 410 472 23,000 1,980 Climbing Vancouver Center
12:47PM 47.9000 -123.5833 180° South 430 495 25,100 1,980 Climbing Vancouver Center
12:48PM 47.7833 -123.5500 169° South 430 495 27,000 1,740 Climbing Vancouver Center
12:49PM 47.6500 -123.5500 180° South 440 506 28,600 1,440 Climbing Vancouver Center
12:50PM 47.5333 -123.5500 180° South 450 518 29,900 1,380 Climbing Vancouver Center
12:51PM 47.4167 -123.5500 180° South 450 518 31,400 1,500 Climbing Vancouver Center
12:52PM 47.2833 -123.5333 175° South 450 518 32,900 1,200 Climbing Vancouver Center
12:53PM 47.1667 -123.5333 180° South 440 506 33,900 960 Climbing Vancouver Center
12:55PM 47.0162 -123.4712 164° South  Level FlightAware Approximate
01:02PM 46.2126 -123.4000 180° South  Level FlightAware Approximate
01:03PM 46.0983 -123.4000 180° South  Level FlightAware Approximate
01:04PM 45.9839 -123.3986 179° South  Level FlightAware Approximate
01:05PM 45.8696 -123.3962 179° South  Level FlightAware Approximate
01:06PM 45.7553 -123.3938 179° South  Level FlightAware Approximate
01:07PM 45.6409 -123.3915 179° South  Level FlightAware Approximate
01:08PM 45.5266 -123.3891 179° South  Level FlightAware Approximate
01:09PM 45.4123 -123.3867 179° South  Level FlightAware Approximate
01:10PM 45.2980 -123.3844 179° South  Level FlightAware Approximate
01:11PM 45.1836 -123.3821 179° South  Level FlightAware Approximate
01:12PM 45.0693 -123.3797 179° South  Level FlightAware Approximate
01:13PM 44.9550 -123.3774 179° South  Level FlightAware Approximate
01:14PM 44.8406 -123.3751 179° South  Level FlightAware Approximate
01:15PM 44.7263 -123.3728 179° South  Level FlightAware Approximate
01:16PM 44.6120 -123.3705 179° South  Level FlightAware Approximate
01:17PM 44.4977 -123.3682 179° South  Level FlightAware Approximate
01:18PM 44.3833 -123.3660 179° South  Level FlightAware Approximate
01:19PM 44.2690 -123.3637 179° South  Level FlightAware Approximate
01:20PM 44.1547 -123.3615 179° South  Level FlightAware Approximate
01:21PM 44.0403 -123.3592 179° South  Level FlightAware Approximate
01:22PM 43.9260 -123.3570 179° South  Level FlightAware Approximate
01:23PM 43.8117 -123.3547 179° South  Level FlightAware Approximate
01:24PM 43.6973 -123.3525 179° South  Level FlightAware Approximate
01:25PM 43.5830 -123.3503 179° South  Level FlightAware Approximate
01:26PM 43.4687 -123.3500 180° South  Level FlightAware Approximate
01:27PM 43.3544 -123.3500 180° South  Level FlightAware Approximate
01:28PM 43.2400 -123.3500 180° South  Level FlightAware Approximate
01:29PM 43.1257 -123.3488 179° South  Level FlightAware Approximate
01:30PM 43.0114 -123.3456 179° South  Level FlightAware Approximate
01:31PM 42.8970 -123.3425 179° South  Level FlightAware Approximate
01:32PM 42.7827 -123.3393 179° South  Level FlightAware Approximate
01:33PM 42.6684 -123.3361 179° South  Level FlightAware Approximate
01:34PM 42.5541 -123.3330 179° South  Level FlightAware Approximate
01:35PM 42.4398 -123.3298 179° South  Level FlightAware Approximate
01:36PM 42.3254 -123.3267 179° South  Level FlightAware Approximate
01:37PM 42.2111 -123.3236 179° South  Level FlightAware Approximate
01:38PM 42.0968 -123.3205 179° South  Level FlightAware Approximate
01:39PM 41.9825 -123.3174 179° South  Level FlightAware Approximate
01:40PM 41.8682 -123.3143 179° South  Level FlightAware Approximate
01:41PM 41.7538 -123.3112 179° South  Level FlightAware Approximate
01:42PM 41.6395 -123.3082 179° South  Level FlightAware Approximate
01:43PM 41.5252 -123.3051 179° South  Level FlightAware Approximate
01:44PM 41.4109 -123.3021 179° South  Level FlightAware Approximate
01:45PM 41.2966 -123.2997 180° South  Level FlightAware Approximate
01:46PM 41.1823 -123.2986 180° South  Level FlightAware Approximate
01:47PM 41.0679 -123.2975 180° South  Level FlightAware Approximate
01:48PM 40.9536 -123.2964 180° South  Level FlightAware Approximate
01:49PM 40.8392 -123.2953 180° South  Level FlightAware Approximate
01:50PM 40.7249 -123.2942 180° South  Level FlightAware Approximate
01:51PM 40.6106 -123.2931 180° South  Level FlightAware Approximate
01:52PM 40.4962 -123.2921 180° South  Level FlightAware Approximate
01:53PM 40.3819 -123.2910 180° South  Level FlightAware Approximate
01:54PM 40.2675 -123.2899 180° South  Level FlightAware Approximate
01:55PM 40.1532 -123.2889 180° South  Level FlightAware Approximate
01:56PM 40.0389 -123.2878 180° South  Level FlightAware Approximate
01:57PM 39.9245 -123.2868 180° South  Level FlightAware Approximate
01:58PM 39.8102 -123.2857 180° South  Level FlightAware Approximate
01:59PM 39.6958 -123.2847 180° South  Level FlightAware Approximate
02:00PM 39.5815 -123.2836 180° South  Level FlightAware Approximate
02:01PM 39.4674 -123.2764 176° South  Level FlightAware Approximate
02:02PM 39.3533 -123.2669 176° South  Level FlightAware Approximate
02:03PM 39.2389 -123.2667 180° South  Level FlightAware Approximate
02:04PM 39.1246 -123.2667 180° South  Level FlightAware Approximate
02:05PM 39.0123 -123.2505 162° South  Level FlightAware Approximate
02:06PM 38.9038 -123.2039 162° South  Level FlightAware Approximate
02:07PM 38.7946 -123.1611 169° South  Level FlightAware Approximate
02:08PM 38.6876 -123.1125 155° Southeast  Level FlightAware Approximate
02:09PM 38.5796 -123.0651 163° South  Level FlightAware Approximate
02:10PM 38.4712 -123.0189 159° South  Level FlightAware Approximate
02:11PM 38.3626 -122.9732 162° South  Level FlightAware Approximate
02:12PM 38.2537 -122.9290 165° South  Level FlightAware Approximate
02:13PM 38.1431 -122.8921 165° South  Level FlightAware Approximate
02:14PM 38.0410 -122.8358 137° Southeast  Level FlightAware Approximate
02:15PM 37.9580 -122.7361 137° Southeast  Level FlightAware Approximate
02:16PM 37.8737 -122.6474 122° Southeast  Level FlightAware Approximate
02:17PM 37.7923 -122.5465 137° Southeast  Level FlightAware Approximate
02:18PM 37.6995 -122.4629 148° Southeast  Level FlightAware Approximate
02:19PM 37.6159 -122.3659 142° Southeast  Level FlightAware Approximate
02:20PM 37.5513 -122.2520 127° Southeast  Level FlightAware Approximate
02:21PM 37.4790 -122.1413 122° Southeast  Level FlightAware Approximate
02:22PM 37.4138 -122.0230 127° Southeast  Level FlightAware Approximate
02:23PM 37.3627 -121.9291 127° Southeast  Level Estimated
02:24PM 37.3627 -121.9291 127° Southeast  Level Estimated
02:25PM 37.3627 -121.9291 127° Southeast  Level Estimated
02:26PM 37.3627 -121.9291 127° Southeast  Level Estimated
02:27PM 37.3627 -121.9291 127° Southeast  Level Estimated
02:28PM 37.3627 -121.9291 127° Southeast  Level Estimated
02:29PM 37.3627 -121.9291 127° Southeast  Level Estimated
02:30PM 37.3627 -121.9291 127° Southeast  Level Estimated
02:31PM 37.3627 -121.9291 127° Southeast  Level Estimated
02:32PM 37.3627 -121.9291 127° Southeast  Level Estimated
02:33PM 37.3627 -121.9291 127° Southeast  Level Estimated
02:34PM 37.3627 -121.9291 127° Southeast  Level Estimated
02:35PM 37.3627 -121.9291 127° Southeast  Level Estimated